Portada
METAR-TAF:

METAR-TAF

Aeroports :

Aeroport de Copenhaguen

Copenhaguen, Dinamarca

latitud: 55-37N, longitud: 012-39E, altitud: 5 m

Observació

L'informe es va fer fa 38 minuts, a les 20:20 UTC
Vent 6 kt del Sud
Temperatura 12°C
Humitat 88%
Pressió 1034 hPa
Visibilitat 10 km o més

METAR: EKCH 262020Z AUTO 18006KT 9999 NCD 12/10 Q1034 NOSIG

Hora: 22:58 (20:58 UTC)

Pronòstic

L'informe es va fer fa 3 hores i 47 minuts, a les 17:11 UTC
Pronòstic vàlid del 26 a les 18 UTC al 27 a les 18 UTC
Vent 5 kt del Sud
Visibilitat 10 km o més
Escasses núvols a una alçada de 4000 ft
Evolucionant progressivament
l' 27 a les 09 UTC al 27 a les 12 UTC
Vent 12 kt del Nord-Oest

TAF: EKCH 261711Z 2618/2718 18005KT 9999 FEW040 BECMG 2709/2712 32012KT

Observacions i pronòstics meteorològics de més de 4000 aeroports (METAR i TAF).

Les estacions disponibles són els punts grocs i vermells al mapa.

Posi el ratolí al punt desitjat per veure el nom de l'estació.

Feu clic per veure les observacions i els pronòstics meteorològics.

Per canviar el mapa: feu clic els botons verds amb una creu de color negre per apropar; al botó verd amb un guió per allunyar la imatge; o en les fletxes verdes per a mapes adjacents.


METAR-TAF: